Time;durP1;ratioP1;P1;durP2;ratioP2;P2;SDS_P1;SDS_P2;PMS_P1;PMS_P2;Temp;Humidity;BMP_temperature;BMP_pressure;BME280_temperature;BME280_humidity;BME280_pressure;Samples;Min_cycle;Max_cycle;Signal;HPM_P1;HPM_P2
2023/07/23 00:01:45;;;;;;;4.45;1.88;;;;;;;;;;5053586;28;20044;-81
2023/07/23 00:04:12;;;;;;;2.70;1.73;;;;;;;;;;5054004;28;20051;-78
2023/07/23 00:06:39;;;;;;;4.75;2.25;;;;;;;;;;5035629;28;20060;-79
2023/07/23 00:09:06;;;;;;;7.38;1.92;;;;;;;;;;5054262;28;20518;-78
2023/07/23 00:11:33;;;;;;;4.55;1.77;;;;;;;;;;5030572;28;20062;-79
2023/07/23 00:13:59;;;;;;;3.67;2.00;;;;;;;;;;5035509;28;20435;-81
2023/07/23 00:16:27;;;;;;;9.77;2.05;;;;;;;;;;5008443;28;21257;-79
2023/07/23 00:18:53;;;;;;;3.28;1.75;;;;;;;;;;5033866;28;20053;-79
2023/07/23 00:21:20;;;;;;;3.97;1.88;;;;;;;;;;5051655;28;20063;-78
2023/07/23 00:23:52;;;;;;;2.47;1.70;;;;;;;;;;5054441;28;20049;-79
2023/07/23 00:26:18;;;;;;;4.95;1.83;;;;;;;;;;5049374;28;20086;-79
2023/07/23 00:28:47;;;;;;;5.60;2.10;;;;;;;;;;5055908;28;20045;-79
2023/07/23 00:31:13;;;;;;;3.65;2.10;;;;;;;;;;5041990;28;20045;-79
2023/07/23 00:33:43;;;;;;;3.25;2.15;;;;;;;;;;5018982;28;20128;-78
2023/07/23 00:36:10;;;;;;;5.07;1.80;;;;;;;;;;5036325;28;20052;-78
2023/07/23 00:38:37;;;;;;;3.95;2.10;;;;;;;;;;5048015;28;20049;-79
2023/07/23 00:41:03;;;;;;;3.97;1.67;;;;;;;;;;5013169;28;20045;-76
2023/07/23 00:43:30;;;;;;;4.20;2.05;;;;;;;;;;5051283;28;20045;-79
2023/07/23 00:45:57;;;;;;;3.78;1.83;;;;;;;;;;5035469;28;20088;-80
2023/07/23 00:48:24;;;;;;;4.43;1.75;;;;;;;;;;5055779;28;20157;-78
2023/07/23 00:50:55;;;;;;;3.25;1.90;;;;;;;;;;5045664;28;20080;-75
2023/07/23 00:53:23;;;;;;;4.10;1.80;;;;;;;;;;5014647;28;20085;-80
2023/07/23 00:55:52;;;;;;;2.65;1.63;;;;;;;;;;5015225;28;20507;-78
2023/07/23 00:58:19;;;;;;;5.13;1.73;;;;;;;;;;5030781;28;20045;-78
2023/07/23 01:00:46;;;;;;;3.22;2.03;;;;;;;;;;5012932;28;20072;-79
2023/07/23 01:03:13;;;;;;;2.53;1.67;;;;;;;;;;5013464;28;20049;-78
2023/07/23 01:05:41;;;;;;;3.03;2.08;;;;;;;;;;5026389;28;20508;-78
2023/07/23 01:08:09;;;;;;;3.30;2.00;;;;;;;;;;5030697;28;20675;-80
2023/07/23 01:10:35;;;;;;;3.30;1.85;;;;;;;;;;5026892;28;20052;-80
2023/07/23 01:13:02;;;;;;;3.22;1.58;;;;;;;;;;5048989;28;20045;-80
2023/07/23 01:15:29;;;;;;;4.10;1.90;;;;;;;;;;5057058;28;20051;-80
2023/07/23 01:17:56;;;;;;;3.45;1.75;;;;;;;;;;5045039;28;20049;-78
2023/07/23 01:20:26;;;;;;;3.35;2.13;;;;;;;;;;5034646;28;20053;-79
2023/07/23 01:22:53;;;;;;;4.25;1.98;;;;;;;;;;5042733;28;20102;-78
2023/07/23 01:25:20;;;;;;;4.05;1.95;;;;;;;;;;5031511;28;20052;-79
2023/07/23 01:27:47;;;;;;;5.93;2.10;;;;;;;;;;5034368;28;20059;-79
2023/07/23 01:30:14;;;;;;;5.10;2.03;;;;;;;;;;5033245;28;20529;-80
2023/07/23 01:32:45;;;;;;;4.28;2.00;;;;;;;;;;5046778;28;20113;-79
2023/07/23 01:35:14;;;;;;;5.18;1.85;;;;;;;;;;5033686;28;20049;-79
2023/07/23 01:37:41;;;;;;;3.22;1.80;;;;;;;;;;5012148;28;20053;-80
2023/07/23 01:40:08;;;;;;;2.50;1.70;;;;;;;;;;5039760;28;20095;-78
2023/07/23 01:42:36;;;;;;;3.47;1.95;;;;;;;;;;5033553;28;20078;-81
2023/07/23 01:45:06;;;;;;;5.82;2.10;;;;;;;;;;5041063;28;20054;-79
2023/07/23 01:47:33;;;;;;;5.65;2.20;;;;;;;;;;5035394;28;20091;-79
2023/07/23 01:50:00;;;;;;;3.35;1.67;;;;;;;;;;5030576;28;20045;-78
2023/07/23 01:52:26;;;;;;;3.13;1.70;;;;;;;;;;5033835;28;20075;-78
2023/07/23 01:54:53;;;;;;;5.22;2.30;;;;;;;;;;5034632;28;20076;-79
2023/07/23 01:57:20;;;;;;;4.45;2.13;;;;;;;;;;5042821;28;20045;-79
2023/07/23 01:59:47;;;;;;;3.95;2.13;;;;;;;;;;5024496;28;20049;-78
2023/07/23 02:02:17;;;;;;;5.70;1.90;;;;;;;;;;5033154;28;20044;-78
2023/07/23 02:04:44;;;;;;;4.07;2.17;;;;;;;;;;5034354;28;20045;-79
2023/07/23 02:07:11;;;;;;;4.35;2.38;;;;;;;;;;5053509;28;20522;-78
2023/07/23 02:09:38;;;;;;;4.45;2.10;;;;;;;;;;5051485;28;20049;-78
2023/07/23 02:12:05;;;;;;;3.40;1.80;;;;;;;;;;5052701;28;20048;-78
2023/07/23 02:14:34;;;;;;;6.78;2.20;;;;;;;;;;5024748;28;20052;-79
2023/07/23 02:17:01;;;;;;;3.90;1.85;;;;;;;;;;5004632;28;20049;-80
2023/07/23 02:19:28;;;;;;;4.57;1.90;;;;;;;;;;5010114;28;20069;-79
2023/07/23 02:21:57;;;;;;;4.05;2.05;;;;;;;;;;5033085;28;20045;-79
2023/07/23 02:24:27;;;;;;;4.10;1.95;;;;;;;;;;5033323;28;20507;-78
2023/07/23 02:26:54;;;;;;;4.38;1.92;;;;;;;;;;5021925;28;20106;-79
2023/07/23 02:29:21;;;;;;;3.75;1.80;;;;;;;;;;5022024;28;20056;-78
2023/07/23 02:31:48;;;;;;;6.70;2.22;;;;;;;;;;5024037;28;20137;-80
2023/07/23 02:34:15;;;;;;;3.97;2.08;;;;;;;;;;5003616;28;20057;-79
2023/07/23 02:36:44;;;;;;;4.32;2.00;;;;;;;;;;5031512;28;20096;-79
2023/07/23 02:39:11;;;;;;;5.78;2.13;;;;;;;;;;5015410;28;20120;-78
2023/07/23 02:41:38;;;;;;;4.22;2.10;;;;;;;;;;5014113;28;20378;-80
2023/07/23 02:44:05;;;;;;;5.47;2.40;;;;;;;;;;5031216;28;20520;-78
2023/07/23 02:46:32;;;;;;;3.58;2.00;;;;;;;;;;5004986;28;20049;-79
2023/07/23 02:48:58;;;;;;;5.53;1.95;;;;;;;;;;5031267;28;20045;-79
2023/07/23 02:51:25;;;;;;;4.72;1.90;;;;;;;;;;5014554;28;20135;-80
2023/07/23 02:53:52;;;;;;;6.30;2.00;;;;;;;;;;5025817;28;20044;-79
2023/07/23 02:56:19;;;;;;;3.53;1.85;;;;;;;;;;5031350;28;20047;-80
2023/07/23 02:58:49;;;;;;;4.30;2.28;;;;;;;;;;5027701;28;20047;-80
2023/07/23 03:01:15;;;;;;;4.93;2.13;;;;;;;;;;5032313;28;20048;-80
2023/07/23 03:03:43;;;;;;;3.30;1.85;;;;;;;;;;5033326;28;20064;-80
2023/07/23 03:06:09;;;;;;;6.43;2.20;;;;;;;;;;5021330;28;20049;-79
2023/07/23 03:08:36;;;;;;;4.07;2.30;;;;;;;;;;5033190;28;20068;-79
2023/07/23 03:11:04;;;;;;;6.05;2.35;;;;;;;;;;5025380;28;20060;-79
2023/07/23 03:13:30;;;;;;;4.07;2.17;;;;;;;;;;5020596;28;20053;-80
2023/07/23 03:15:57;;;;;;;4.72;1.85;;;;;;;;;;5025279;28;20045;-79
2023/07/23 03:18:24;;;;;;;4.63;2.40;;;;;;;;;;5028416;28;20046;-79
2023/07/23 03:20:51;;;;;;;4.78;2.08;;;;;;;;;;5029923;28;20103;-78
2023/07/23 03:23:17;;;;;;;5.90;2.05;;;;;;;;;;5026203;28;20495;-80
2023/07/23 03:25:46;;;;;;;4.10;2.10;;;;;;;;;;5030172;28;20091;-78
2023/07/23 03:28:13;;;;;;;4.32;1.98;;;;;;;;;;5025274;28;20586;-78
2023/07/23 03:30:42;;;;;;;3.33;1.90;;;;;;;;;;5029109;28;20046;-79
2023/07/23 03:33:09;;;;;;;5.75;1.90;;;;;;;;;;5028851;28;20489;-78
2023/07/23 03:35:38;;;;;;;3.92;1.92;;;;;;;;;;5028403;28;20270;-78
2023/07/23 03:38:05;;;;;;;2.78;1.85;;;;;;;;;;5030128;28;20045;-79
2023/07/23 03:40:33;;;;;;;4.07;2.28;;;;;;;;;;5019882;28;20067;-79
2023/07/23 03:42:59;;;;;;;4.28;2.10;;;;;;;;;;5011062;28;20038;-79
2023/07/23 03:45:26;;;;;;;6.57;1.92;;;;;;;;;;5010631;28;20041;-79
2023/07/23 03:47:53;;;;;;;3.78;2.10;;;;;;;;;;5024823;28;20114;-80
2023/07/23 03:50:19;;;;;;;4.35;2.00;;;;;;;;;;5032640;28;20135;-79
2023/07/23 03:52:47;;;;;;;4.78;2.10;;;;;;;;;;5054638;28;20509;-79
2023/07/23 03:55:14;;;;;;;5.03;2.33;;;;;;;;;;5047655;28;20041;-78
2023/07/23 03:57:40;;;;;;;5.78;2.30;;;;;;;;;;5014675;28;20107;-79
2023/07/23 04:00:08;;;;;;;5.55;2.28;;;;;;;;;;5035881;28;20048;-79
2023/07/23 04:02:38;;;;;;;3.92;1.80;;;;;;;;;;5041376;28;20135;-80
2023/07/23 04:05:04;;;;;;;4.07;2.30;;;;;;;;;;5048462;28;20084;-78
2023/07/23 04:07:31;;;;;;;4.38;2.28;;;;;;;;;;5028464;28;20049;-80
2023/07/23 04:09:57;;;;;;;4.55;2.38;;;;;;;;;;5036839;28;20044;-80
2023/07/23 04:12:24;;;;;;;3.45;2.10;;;;;;;;;;5030688;28;20296;-78
2023/07/23 04:14:51;;;;;;;5.45;2.67;;;;;;;;;;5030298;28;20072;-79
2023/07/23 04:17:18;;;;;;;5.55;1.90;;;;;;;;;;5050197;28;20056;-79
2023/07/23 04:19:45;;;;;;;5.20;2.33;;;;;;;;;;5049694;28;20048;-80
2023/07/23 04:22:11;;;;;;;3.67;2.00;;;;;;;;;;5058020;28;20052;-80
2023/07/23 04:24:38;;;;;;;3.60;2.00;;;;;;;;;;5028838;28;20565;-79
2023/07/23 04:27:05;;;;;;;4.75;2.17;;;;;;;;;;5050596;28;20068;-77
2023/07/23 04:29:31;;;;;;;3.67;1.90;;;;;;;;;;5028882;28;20968;-81
2023/07/23 04:31:58;;;;;;;4.22;1.90;;;;;;;;;;5032297;28;20520;-80
2023/07/23 04:34:25;;;;;;;5.32;2.20;;;;;;;;;;5023386;28;20049;-80
2023/07/23 04:36:53;;;;;;;3.63;1.95;;;;;;;;;;5028762;28;20056;-79
2023/07/23 04:39:20;;;;;;;2.88;1.83;;;;;;;;;;5005135;28;20149;-79
2023/07/23 04:41:47;;;;;;;3.35;2.10;;;;;;;;;;5010448;28;20466;-78
2023/07/23 04:44:14;;;;;;;5.60;2.15;;;;;;;;;;5044300;28;20052;-80
2023/07/23 04:46:40;;;;;;;3.58;2.08;;;;;;;;;;5034222;28;20048;-80
2023/07/23 04:49:07;;;;;;;4.03;2.03;;;;;;;;;;5036875;28;20115;-78
2023/07/23 04:51:33;;;;;;;5.93;2.25;;;;;;;;;;5032588;28;20319;-80
2023/07/23 04:54:00;;;;;;;4.22;1.77;;;;;;;;;;5051544;28;20051;-80
2023/07/23 04:56:26;;;;;;;6.25;2.22;;;;;;;;;;5049247;28;20053;-78
2023/07/23 04:58:53;;;;;;;3.97;1.98;;;;;;;;;;5032135;28;20057;-79
2023/07/23 05:01:20;;;;;;;3.30;1.90;;;;;;;;;;5050037;28;20136;-79
2023/07/23 05:03:46;;;;;;;3.92;1.95;;;;;;;;;;5050576;28;20044;-80
2023/07/23 05:06:13;;;;;;;3.80;2.08;;;;;;;;;;5030998;28;20467;-80
2023/07/23 05:08:39;;;;;;;7.85;2.08;;;;;;;;;;5051200;28;20068;-80
2023/07/23 05:11:06;;;;;;;4.03;1.88;;;;;;;;;;5031112;28;20936;-78
2023/07/23 05:13:33;;;;;;;3.30;1.70;;;;;;;;;;5049471;28;20045;-80
2023/07/23 05:16:00;;;;;;;4.25;2.20;;;;;;;;;;5049435;28;20073;-78
2023/07/23 05:18:27;;;;;;;4.93;2.00;;;;;;;;;;5033281;28;20096;-79
2023/07/23 05:20:54;;;;;;;4.93;2.05;;;;;;;;;;5051327;28;20041;-78
2023/07/23 05:23:21;;;;;;;4.03;1.98;;;;;;;;;;5061719;28;20048;-79
2023/07/23 05:25:48;;;;;;;8.63;2.10;;;;;;;;;;5052105;28;20040;-79
2023/07/23 05:28:15;;;;;;;4.32;2.03;;;;;;;;;;5050278;28;20043;-79
2023/07/23 05:30:41;;;;;;;4.03;2.22;;;;;;;;;;5047425;28;20270;-81
2023/07/23 05:33:09;;;;;;;3.53;1.95;;;;;;;;;;5041977;28;20422;-79
2023/07/23 05:35:36;;;;;;;4.97;2.22;;;;;;;;;;5047841;28;20053;-78
2023/07/23 05:38:03;;;;;;;4.00;2.20;;;;;;;;;;5059624;28;20037;-78
2023/07/23 05:40:31;;;;;;;5.93;2.13;;;;;;;;;;5072385;28;20074;-78
2023/07/23 05:42:59;;;;;;;3.97;1.98;;;;;;;;;;5072463;28;20044;-79
2023/07/23 05:45:25;;;;;;;5.28;1.90;;;;;;;;;;5057185;28;20048;-79
2023/07/23 05:47:52;;;;;;;8.40;1.90;;;;;;;;;;5053215;28;20049;-78
2023/07/23 05:50:19;;;;;;;3.53;2.10;;;;;;;;;;5018750;28;20147;-79
2023/07/23 05:52:45;;;;;;;3.20;1.83;;;;;;;;;;5050596;28;20048;-79
2023/07/23 05:55:12;;;;;;;2.92;1.95;;;;;;;;;;5030293;28;20053;-80
2023/07/23 05:57:38;;;;;;;4.35;2.00;;;;;;;;;;5045883;28;20060;-77
2023/07/23 06:00:05;;;;;;;3.78;1.92;;;;;;;;;;5025892;28;20041;-79
2023/07/23 06:02:36;;;;;;;5.35;1.85;;;;;;;;;;5047293;28;20078;-79
2023/07/23 06:05:03;;;;;;;3.50;2.08;;;;;;;;;;5046648;28;20064;-79
2023/07/23 06:07:31;;;;;;;3.55;1.95;;;;;;;;;;5048988;28;20167;-78
2023/07/23 06:09:58;;;;;;;3.13;1.63;;;;;;;;;;5048506;28;20053;-79
2023/07/23 06:12:25;;;;;;;5.28;2.08;;;;;;;;;;5045371;28;20056;-78
2023/07/23 06:14:51;;;;;;;3.67;1.92;;;;;;;;;;5047225;28;20048;-79
2023/07/23 06:17:18;;;;;;;3.25;1.70;;;;;;;;;;5045817;28;20045;-78
2023/07/23 06:19:45;;;;;;;4.75;2.05;;;;;;;;;;5045463;28;20424;-79
2023/07/23 06:22:12;;;;;;;4.43;2.03;;;;;;;;;;5025363;28;20095;-78
2023/07/23 06:24:39;;;;;;;3.60;2.15;;;;;;;;;;5027095;28;20128;-79
2023/07/23 06:27:05;;;;;;;4.65;1.73;;;;;;;;;;5045062;28;20041;-79
2023/07/23 06:29:32;;;;;;;3.97;1.95;;;;;;;;;;5009809;28;20103;-78
2023/07/23 06:31:59;;;;;;;3.03;1.85;;;;;;;;;;5046924;28;20048;-79
2023/07/23 06:34:25;;;;;;;4.13;2.13;;;;;;;;;;5042272;28;20049;-79
2023/07/23 06:36:52;;;;;;;3.47;1.83;;;;;;;;;;5043791;28;20052;-79
2023/07/23 06:39:20;;;;;;;4.15;2.28;;;;;;;;;;5041440;28;20053;-78
2023/07/23 06:41:46;;;;;;;4.43;2.42;;;;;;;;;;5025816;28;20589;-78
2023/07/23 06:44:14;;;;;;;3.72;2.03;;;;;;;;;;5028507;28;20049;-79
2023/07/23 06:46:41;;;;;;;3.97;2.00;;;;;;;;;;5031656;28;20052;-78
2023/07/23 06:49:08;;;;;;;3.70;1.90;;;;;;;;;;5048787;28;20550;-78
2023/07/23 06:51:34;;;;;;;4.25;2.20;;;;;;;;;;5046857;28;20045;-79
2023/07/23 06:54:01;;;;;;;3.63;1.83;;;;;;;;;;5029670;28;20045;-79
2023/07/23 06:56:27;;;;;;;4.50;2.35;;;;;;;;;;5047126;28;20048;-81
2023/07/23 06:59:00;;;;;;;6.15;2.50;;;;;;;;;;5051886;28;20045;-79
2023/07/23 07:01:26;;;;;;;4.40;2.22;;;;;;;;;;5026085;28;20156;-79
2023/07/23 07:03:55;;;;;;;3.05;2.00;;;;;;;;;;5048883;28;20598;-78
2023/07/23 07:06:22;;;;;;;3.85;2.10;;;;;;;;;;5024891;28;20049;-78
2023/07/23 07:08:48;;;;;;;3.78;1.95;;;;;;;;;;5033706;28;20113;-79
2023/07/23 07:11:15;;;;;;;3.17;1.90;;;;;;;;;;5013817;28;20049;-78
2023/07/23 07:13:42;;;;;;;3.28;2.00;;;;;;;;;;5026827;28;20708;-78
2023/07/23 07:16:11;;;;;;;8.13;2.35;;;;;;;;;;5015626;28;20152;-79
2023/07/23 07:18:38;;;;;;;2.80;1.88;;;;;;;;;;5028080;28;20041;-79
2023/07/23 07:21:05;;;;;;;4.60;2.20;;;;;;;;;;5019751;28;20046;-81
2023/07/23 07:23:31;;;;;;;5.03;1.98;;;;;;;;;;5022165;28;20140;-79
2023/07/23 07:26:00;;;;;;;3.72;2.28;;;;;;;;;;5017199;28;20057;-79
2023/07/23 07:28:28;;;;;;;5.45;2.25;;;;;;;;;;5022888;28;20155;-80
2023/07/23 07:30:58;;;;;;;4.40;2.10;;;;;;;;;;5018765;28;20053;-79
2023/07/23 07:33:27;;;;;;;4.65;2.13;;;;;;;;;;5018171;28;20049;-79
2023/07/23 07:35:54;;;;;;;4.05;1.90;;;;;;;;;;5018015;28;20056;-78
2023/07/23 07:38:21;;;;;;;4.80;2.25;;;;;;;;;;5017867;28;20512;-77
2023/07/23 07:40:51;;;;;;;3.95;1.80;;;;;;;;;;5019598;28;20045;-79
2023/07/23 07:43:18;;;;;;;4.45;1.77;;;;;;;;;;5021228;28;20111;-79
2023/07/23 07:45:48;;;;;;;3.42;1.90;;;;;;;;;;5019554;28;20072;-78
2023/07/23 07:48:16;;;;;;;3.20;1.80;;;;;;;;;;5021216;28;20056;-79
2023/07/23 07:50:42;;;;;;;3.72;2.10;;;;;;;;;;5024054;28;20128;-78
2023/07/23 07:53:09;;;;;;;3.70;2.10;;;;;;;;;;5021652;28;20049;-79
2023/07/23 07:55:40;;;;;;;5.30;2.00;;;;;;;;;;5025158;28;20053;-78
2023/07/23 07:58:07;;;;;;;10.38;1.92;;;;;;;;;;5024757;28;20045;-78
2023/07/23 08:00:34;;;;;;;4.95;1.73;;;;;;;;;;5017612;28;20476;-77
2023/07/23 08:03:01;;;;;;;3.25;1.85;;;;;;;;;;5023801;28;20129;-78
2023/07/23 08:05:28;;;;;;;4.07;2.00;;;;;;;;;;5020446;28;20049;-78
2023/07/23 08:07:54;;;;;;;3.97;1.77;;;;;;;;;;5019705;28;20067;-78
2023/07/23 08:10:21;;;;;;;4.15;2.17;;;;;;;;;;5019657;28;20056;-77
2023/07/23 08:12:48;;;;;;;2.53;1.73;;;;;;;;;;5021871;28;20041;-78
2023/07/23 08:15:15;;;;;;;5.35;2.00;;;;;;;;;;5021356;28;21041;-78
2023/07/23 08:17:42;;;;;;;2.90;1.90;;;;;;;;;;5021189;28;20053;-77
2023/07/23 08:20:09;;;;;;;4.32;1.70;;;;;;;;;;5019162;28;20061;-80
2023/07/23 08:22:36;;;;;;;6.18;1.80;;;;;;;;;;5027163;28;20052;-78
2023/07/23 08:25:03;;;;;;;2.85;1.75;;;;;;;;;;5025777;28;20120;-77
2023/07/23 08:27:30;;;;;;;2.65;1.70;;;;;;;;;;5022757;28;20901;-78
2023/07/23 08:29:58;;;;;;;2.70;1.80;;;;;;;;;;5031305;28;20052;-80
2023/07/23 08:32:25;;;;;;;2.38;1.60;;;;;;;;;;5024984;28;20050;-79
2023/07/23 08:34:51;;;;;;;5.30;2.00;;;;;;;;;;5031478;28;20080;-79
2023/07/23 08:37:21;;;;;;;4.20;1.85;;;;;;;;;;5025625;28;20821;-79
2023/07/23 08:39:48;;;;;;;2.63;1.70;;;;;;;;;;5024252;28;20111;-78
2023/07/23 08:42:42;;;;;;;4.10;2.00;;;;;;;;;;5026618;28;20084;-78
2023/07/23 08:45:15;;;;;;;8.75;2.05;;;;;;;;;;5007938;28;20103;-77
2023/07/23 08:47:46;;;;;;;2.58;1.60;;;;;;;;;;5009442;28;20053;-77
2023/07/23 08:50:13;;;;;;;4.13;1.60;;;;;;;;;;5035972;28;20045;-77
2023/07/23 08:52:41;;;;;;;2.85;1.85;;;;;;;;;;5026479;28;20044;-78
2023/07/23 08:55:08;;;;;;;2.50;1.55;;;;;;;;;;5029415;28;20752;-76
2023/07/23 08:57:38;;;;;;;3.10;1.88;;;;;;;;;;5019433;28;20048;-78
2023/07/23 09:00:06;;;;;;;3.15;1.80;;;;;;;;;;5025184;28;20344;-78
2023/07/23 09:02:33;;;;;;;4.30;1.80;;;;;;;;;;5017396;28;20128;-77
2023/07/23 09:05:00;;;;;;;3.45;2.05;;;;;;;;;;5021696;28;20058;-80
2023/07/23 09:07:27;;;;;;;3.75;1.90;;;;;;;;;;5039740;28;20040;-79
2023/07/23 09:09:54;;;;;;;3.55;1.80;;;;;;;;;;5051608;28;20700;-78
2023/07/23 09:12:21;;;;;;;2.80;1.85;;;;;;;;;;5033246;28;20082;-79
2023/07/23 09:14:48;;;;;;;3.30;1.52;;;;;;;;;;5049467;28;20614;-78
2023/07/23 09:17:15;;;;;;;4.63;1.73;;;;;;;;;;5054749;28;20069;-78
2023/07/23 09:19:45;;;;;;;4.93;2.00;;;;;;;;;;5052733;28;20044;-77
2023/07/23 09:22:11;;;;;;;3.80;1.83;;;;;;;;;;5040441;28;20367;-79
2023/07/23 09:24:38;;;;;;;4.22;2.15;;;;;;;;;;5047972;28;20489;-79
2023/07/23 09:27:08;;;;;;;3.47;2.10;;;;;;;;;;5032671;28;20069;-78
2023/07/23 09:29:36;;;;;;;5.65;2.13;;;;;;;;;;5049980;28;20065;-78
2023/07/23 09:32:02;;;;;;;4.90;2.28;;;;;;;;;;5047108;28;20438;-79
2023/07/23 09:34:29;;;;;;;4.72;2.08;;;;;;;;;;5050479;28;20597;-79
2023/07/23 09:36:56;;;;;;;10.73;2.60;;;;;;;;;;5048785;28;20135;-78
2023/07/23 09:39:26;;;;;;;4.18;2.25;;;;;;;;;;5047819;28;20190;-77
2023/07/23 09:41:54;;;;;;;2.47;1.67;;;;;;;;;;5026136;28;20042;-78
2023/07/23 09:44:23;;;;;;;2.60;1.80;;;;;;;;;;5046214;28;20075;-79
2023/07/23 09:46:50;;;;;;;2.75;1.70;;;;;;;;;;5044133;28;20540;-77
2023/07/23 09:49:22;;;;;;;5.13;1.98;;;;;;;;;;5045712;28;20041;-79
2023/07/23 09:51:50;;;;;;;8.43;2.30;;;;;;;;;;5043424;28;20361;-78
2023/07/23 09:54:17;;;;;;;25.77;3.20;;;;;;;;;;5047225;28;20045;-77
2023/07/23 09:56:45;;;;;;;5.05;1.90;;;;;;;;;;5048147;28;20094;-77
2023/07/23 09:59:12;;;;;;;4.10;2.00;;;;;;;;;;5051846;28;20049;-77
2023/07/23 10:01:39;;;;;;;4.40;1.92;;;;;;;;;;5058605;28;20054;-79
2023/07/23 10:04:05;;;;;;;3.95;2.08;;;;;;;;;;5059649;28;20056;-78
2023/07/23 10:06:32;;;;;;;4.30;2.00;;;;;;;;;;5044870;28;20049;-78
2023/07/23 10:09:02;;;;;;;3.90;2.15;;;;;;;;;;5043315;28;20049;-78
2023/07/23 10:11:33;;;;;;;4.10;2.25;;;;;;;;;;5051937;28;20048;-79
2023/07/23 10:14:08;;;;;;;4.18;2.15;;;;;;;;;;5066422;28;20135;-77
2023/07/23 10:16:38;;;;;;;5.93;2.50;;;;;;;;;;5029066;28;20058;-78
2023/07/23 10:19:05;;;;;;;3.30;2.15;;;;;;;;;;5070756;28;20124;-79
2023/07/23 10:21:35;;;;;;;5.43;2.50;;;;;;;;;;5059165;28;20048;-78
2023/07/23 10:24:05;;;;;;;3.75;1.90;;;;;;;;;;5031564;28;20113;-78
2023/07/23 10:26:42;;;;;;;3.40;1.80;;;;;;;;;;5050498;28;20132;-78
2023/07/23 10:29:18;;;;;;;3.95;2.00;;;;;;;;;;5051727;28;20626;-78
2023/07/23 10:31:45;;;;;;;3.70;1.80;;;;;;;;;;5022073;28;20091;-78
2023/07/23 10:34:27;;;;;;;7.05;2.47;;;;;;;;;;5031830;28;20099;-78
2023/07/23 10:37:12;;;;;;;3.38;2.03;;;;;;;;;;5056876;28;20044;-78
2023/07/23 10:39:40;;;;;;;6.65;1.80;;;;;;;;;;5054563;28;20121;-78
2023/07/23 10:42:14;;;;;;;2.58;1.60;;;;;;;;;;5051663;28;20057;-78
2023/07/23 10:44:47;;;;;;;2.92;1.75;;;;;;;;;;5040930;28;20609;-80
2023/07/23 10:47:40;;;;;;;4.13;1.88;;;;;;;;;;5036283;28;20508;-78
2023/07/23 10:50:14;;;;;;;3.95;2.13;;;;;;;;;;5022951;28;20045;-78
2023/07/23 10:52:44;;;;;;;6.88;1.92;;;;;;;;;;5019591;28;20049;-78
2023/07/23 10:55:11;;;;;;;3.58;2.10;;;;;;;;;;5023774;28;20049;-77
2023/07/23 10:57:41;;;;;;;4.03;2.20;;;;;;;;;;5030134;28;20073;-78
2023/07/23 11:00:18;;;;;;;4.63;1.95;;;;;;;;;;5052586;28;20423;-78
2023/07/23 11:02:47;;;;;;;4.25;2.22;;;;;;;;;;5054490;28;20052;-79
2023/07/23 11:05:15;;;;;;;5.68;1.98;;;;;;;;;;5029117;28;20079;-79
2023/07/23 11:08:02;;;;;;;4.28;2.53;;;;;;;;;;5052152;28;20449;-79
2023/07/23 11:10:43;;;;;;;4.15;2.00;;;;;;;;;;5052163;28;20584;-78
2023/07/23 11:13:10;;;;;;;3.75;2.00;;;;;;;;;;5026895;28;20052;-77
2023/07/23 11:15:36;;;;;;;4.03;1.90;;;;;;;;;;5053962;28;20525;-77
2023/07/23 11:18:03;;;;;;;2.78;1.60;;;;;;;;;;5046749;28;20054;-80
2023/07/23 11:20:32;;;;;;;2.63;2.00;;;;;;;;;;5050330;28;20132;-79
2023/07/23 11:22:58;;;;;;;3.40;2.03;;;;;;;;;;5059340;28;20051;-78
2023/07/23 11:25:25;;;;;;;3.20;2.08;;;;;;;;;;5059738;28;20077;-79
2023/07/23 11:27:51;;;;;;;5.13;2.22;;;;;;;;;;5065438;28;20123;-79
2023/07/23 11:30:18;;;;;;;3.90;2.03;;;;;;;;;;5030248;28;20045;-77
2023/07/23 11:32:48;;;;;;;6.72;2.22;;;;;;;;;;5016951;28;20041;-78
2023/07/23 11:35:15;;;;;;;4.22;2.22;;;;;;;;;;5024520;28;20049;-79
2023/07/23 11:37:50;;;;;;;3.60;2.13;;;;;;;;;;5027968;28;20695;-79
2023/07/23 11:40:19;;;;;;;4.03;2.05;;;;;;;;;;5024843;28;20814;-79
2023/07/23 11:42:46;;;;;;;3.60;2.00;;;;;;;;;;5013399;28;20131;-76
2023/07/23 11:45:12;;;;;;;3.63;2.40;;;;;;;;;;5002103;28;20041;-78
2023/07/23 11:47:49;;;;;;;5.00;2.53;;;;;;;;;;5010285;28;20045;-77
2023/07/23 11:50:19;;;;;;;4.07;2.38;;;;;;;;;;5023204;28;20046;-78
2023/07/23 11:52:47;;;;;;;4.93;2.05;;;;;;;;;;5054877;28;20044;-79
2023/07/23 11:55:20;;;;;;;3.60;2.45;;;;;;;;;;5044807;28;20033;-78
2023/07/23 11:57:50;;;;;;;5.28;2.40;;;;;;;;;;5046388;28;20531;-79
2023/07/23 12:00:23;;;;;;;6.60;2.92;;;;;;;;;;5043166;28;20077;-79
2023/07/23 12:02:50;;;;;;;4.22;2.58;;;;;;;;;;5028704;28;20041;-80
2023/07/23 12:05:16;;;;;;;5.07;2.47;;;;;;;;;;5029505;28;20053;-79
2023/07/23 12:07:43;;;;;;;4.72;2.30;;;;;;;;;;5051249;28;20049;-78
2023/07/23 12:10:12;;;;;;;3.85;2.20;;;;;;;;;;5057602;28;20666;-77
2023/07/23 12:12:39;;;;;;;4.68;2.35;;;;;;;;;;5041332;28;20045;-78
2023/07/23 12:15:06;;;;;;;4.03;2.30;;;;;;;;;;5050652;28;20807;-78
2023/07/23 12:17:33;;;;;;;3.63;2.30;;;;;;;;;;5051836;28;20091;-77
2023/07/23 12:20:02;;;;;;;3.83;2.28;;;;;;;;;;5053100;28;20059;-78
2023/07/23 12:22:31;;;;;;;4.32;2.85;;;;;;;;;;5051160;28;20061;-79
2023/07/23 12:24:58;;;;;;;4.75;2.60;;;;;;;;;;5054690;28;20063;-78
2023/07/23 12:27:25;;;;;;;5.80;2.40;;;;;;;;;;5052789;28;20112;-79
2023/07/23 12:29:51;;;;;;;4.18;2.55;;;;;;;;;;5055195;28;20584;-78
2023/07/23 12:32:21;;;;;;;4.38;2.60;;;;;;;;;;5059759;28;20045;-79
2023/07/23 12:34:48;;;;;;;3.58;2.35;;;;;;;;;;5056347;28;20040;-78
2023/07/23 12:37:16;;;;;;;4.20;2.30;;;;;;;;;;5052693;28;20098;-77
2023/07/23 12:39:44;;;;;;;3.28;2.10;;;;;;;;;;5053629;28;20541;-78
2023/07/23 12:42:10;;;;;;;3.30;2.10;;;;;;;;;;5059568;28;20477;-77
2023/07/23 12:44:37;;;;;;;6.00;2.30;;;;;;;;;;5046081;28;20132;-79
2023/07/23 12:47:04;;;;;;;4.57;2.20;;;;;;;;;;5060780;28;20041;-79
2023/07/23 12:49:30;;;;;;;4.63;2.45;;;;;;;;;;5069647;28;20519;-79
2023/07/23 12:51:58;;;;;;;4.03;2.25;;;;;;;;;;5052796;28;20410;-78
2023/07/23 12:54:25;;;;;;;5.18;2.20;;;;;;;;;;5055252;28;20045;-78
2023/07/23 12:56:53;;;;;;;5.40;2.30;;;;;;;;;;5057055;28;20068;-80
2023/07/23 12:59:19;;;;;;;3.83;2.35;;;;;;;;;;5051176;28;20052;-80
2023/07/23 13:01:46;;;;;;;3.80;2.22;;;;;;;;;;5049550;28;20069;-77
2023/07/23 13:04:13;;;;;;;4.50;2.33;;;;;;;;;;5050307;28;20079;-78
2023/07/23 13:06:39;;;;;;;4.05;2.30;;;;;;;;;;5050359;28;20041;-79
2023/07/23 13:09:06;;;;;;;3.58;2.08;;;;;;;;;;5051219;28;20037;-78
2023/07/23 13:11:36;;;;;;;3.10;1.92;;;;;;;;;;5059603;28;20045;-79
2023/07/23 13:14:02;;;;;;;6.13;2.40;;;;;;;;;;5053897;28;20047;-78
2023/07/23 13:16:29;;;;;;;3.08;1.77;;;;;;;;;;5055956;28;20529;-78
2023/07/23 13:18:56;;;;;;;2.45;1.77;;;;;;;;;;5053125;28;20037;-77
2023/07/23 13:21:23;;;;;;;5.28;2.13;;;;;;;;;;5051803;28;20053;-79
2023/07/23 13:23:52;;;;;;;4.72;2.10;;;;;;;;;;5039910;28;20466;-79
2023/07/23 13:26:19;;;;;;;4.60;2.20;;;;;;;;;;5061953;28;20064;-78
2023/07/23 13:28:48;;;;;;;2.70;1.90;;;;;;;;;;5060704;28;20110;-79
2023/07/23 13:31:18;;;;;;;5.63;2.20;;;;;;;;;;5044788;28;20389;-82
2023/07/23 13:33:45;;;;;;;2.83;1.92;;;;;;;;;;5061024;28;20041;-79
2023/07/23 13:36:11;;;;;;;2.72;1.83;;;;;;;;;;5060723;28;20048;-77
2023/07/23 13:38:38;;;;;;;2.28;1.75;;;;;;;;;;5056265;28;20048;-78
2023/07/23 13:41:05;;;;;;;2.85;1.77;;;;;;;;;;5056159;28;20045;-80
2023/07/23 13:43:32;;;;;;;5.55;1.90;;;;;;;;;;5051877;28;20060;-80
2023/07/23 13:45:58;;;;;;;2.85;1.75;;;;;;;;;;5052023;28;20041;-78
2023/07/23 13:48:25;;;;;;;3.50;1.60;;;;;;;;;;5059051;28;20513;-81
2023/07/23 13:50:52;;;;;;;3.17;1.63;;;;;;;;;;5056914;28;20040;-78
2023/07/23 13:53:18;;;;;;;4.25;1.50;;;;;;;;;;5055222;28;20048;-79
2023/07/23 13:55:45;;;;;;;4.30;1.67;;;;;;;;;;5058689;28;20048;-78
2023/07/23 13:58:12;;;;;;;6.38;1.80;;;;;;;;;;5050569;28;20041;-78
2023/07/23 14:00:38;;;;;;;3.95;1.50;;;;;;;;;;5050531;28;20588;-78
2023/07/23 14:03:05;;;;;;;2.63;1.63;;;;;;;;;;5033611;28;20049;-79
2023/07/23 14:05:35;;;;;;;2.90;1.80;;;;;;;;;;5051230;28;20052;-79
2023/07/23 14:08:02;;;;;;;5.25;1.80;;;;;;;;;;5051391;28;20068;-79
2023/07/23 14:10:29;;;;;;;2.90;2.10;;;;;;;;;;5057888;28;20114;-79
2023/07/23 14:12:55;;;;;;;3.85;2.15;;;;;;;;;;5057769;28;20113;-81
2023/07/23 14:15:22;;;;;;;4.20;1.77;;;;;;;;;;5051693;28;20474;-79
2023/07/23 14:17:49;;;;;;;4.47;2.08;;;;;;;;;;5051543;28;20487;-78
2023/07/23 14:20:15;;;;;;;6.57;2.05;;;;;;;;;;5052075;28;20068;-77
2023/07/23 14:22:43;;;;;;;6.88;1.73;;;;;;;;;;5040849;28;20036;-78
2023/07/23 14:25:10;;;;;;;3.50;1.90;;;;;;;;;;5058739;28;20123;-78
2023/07/23 14:27:36;;;;;;;3.08;1.92;;;;;;;;;;5024071;28;20043;-79
2023/07/23 14:30:03;;;;;;;4.55;2.20;;;;;;;;;;5002456;28;20042;-79
2023/07/23 14:32:30;;;;;;;4.80;2.90;;;;;;;;;;5011767;28;20037;-80
2023/07/23 14:34:56;;;;;;;6.40;2.90;;;;;;;;;;5010176;28;20252;-80
2023/07/23 14:37:25;;;;;;;5.13;2.70;;;;;;;;;;5029687;28;20053;-81
2023/07/23 14:39:52;;;;;;;6.35;2.88;;;;;;;;;;5045362;28;20075;-80
2023/07/23 14:42:18;;;;;;;5.25;3.10;;;;;;;;;;5056680;28;20048;-80
2023/07/23 14:44:45;;;;;;;5.90;3.10;;;;;;;;;;5051163;28;20095;-79
2023/07/23 14:47:12;;;;;;;6.45;3.13;;;;;;;;;;5050169;28;20127;-79